Mauldin, SC (29662)

3:31 AM EST on February 09, 2016 (GMT -0500)
Woodhedge | | Change Station
CLOSE
Current Station
Personal Weather Station
Location: Mauldin, SC
Elevation: 899 ft
Nearby Weather Stations

Elev 899 ft 34.77 °N, 82.31 °W | Updated 1 minute ago

Partly Cloudy
Partly Cloudy
33.1 °F
Feels Like 30 °F
N
3.8
Wind Variable Wind from WSW

Today
High -- | Low -- °F
--% Chance of Precip.
Yesterday
High -- | Low -- °F
Precip. -- in
Pressure 29.70 in
Visibility 10.0 miles
Clouds Clear
Windchill 30 °F
Dew Point 18 °F
Humidity 53%
Rainfall 0.00 in
Snow Depth Not available.
7:21 AM 6:05 PM
New Moon, 1% visible
METAR KGYH 090815Z AUTO 28009KT 10SM CLR 01/M09 A2970 RMK AO2
Pressure 29.70 in
Visibility 10.0 miles
Clouds Clear
Windchill 30 °F
Dew Point 18 °F
Humidity 53%
Rainfall 0.00 in
Snow Depth Not available.
7:21 AM 6:05 PM
New Moon, 1% visible
METAR KGYH 090815Z AUTO 28009KT 10SM CLR 01/M09 A2970 RMK AO2

10-Day Weather Forecast

Almanac

Astronomy

Feb. 09, 2016 Rise Set
Actual Time
Civil Twilight
Nautical Twilight
Astronomical Twilight
Moon
Length of Visible Light
Length of Day
Tomorrow will be .
, % of the Moon is Illuminated

Today's Extremes

State Highs State Lows

Community

WunderPhotos

Upload Photos

1,891,571 photos uploaded!

WunderBlog® & News

Nearby

Air Quality

  Air Quality AQ Index Pollutant
Not available.

Snow Depth

Station Depth Elevation

Earthquake Activity

City Distance Mag. Time & Date
Minimum magnitude displayed is 2.5.

Coastal Water Temperatures

Place Temperature

Stations

Nearby Weather Stations

Station Location Temp. Windchill Dew Point Humidity Wind Precip. Elev Updated Type
                   

Watches & Warnings

There are currently no watches in effect.